sensor_id;sensor_type;location;lat;lon;timestamp;P1;durP1;ratioP1;P2;durP2;ratioP2
78718;SDS011;68046;53.334;9.538;2024-01-16T00:02:09;6.80;;;4.95;;
78718;SDS011;68046;53.334;9.538;2024-01-16T00:04:35;5.95;;;4.22;;
78718;SDS011;68046;53.334;9.538;2024-01-16T00:07:01;9.13;;;4.35;;
78718;SDS011;68046;53.334;9.538;2024-01-16T00:09:27;7.60;;;4.50;;
78718;SDS011;68046;53.334;9.538;2024-01-16T00:11:54;7.40;;;4.72;;
78718;SDS011;68046;53.334;9.538;2024-01-16T00:14:19;5.43;;;3.50;;
78718;SDS011;68046;53.334;9.538;2024-01-16T00:16:45;6.85;;;4.30;;
78718;SDS011;68046;53.334;9.538;2024-01-16T00:19:11;7.32;;;4.38;;
78718;SDS011;68046;53.334;9.538;2024-01-16T00:21:38;8.60;;;4.93;;
78718;SDS011;68046;53.334;9.538;2024-01-16T00:24:04;12.60;;;4.60;;
78718;SDS011;68046;53.334;9.538;2024-01-16T00:26:30;6.85;;;3.97;;
78718;SDS011;68046;53.334;9.538;2024-01-16T00:28:57;7.97;;;4.75;;
78718;SDS011;68046;53.334;9.538;2024-01-16T00:31:22;9.27;;;4.78;;
78718;SDS011;68046;53.334;9.538;2024-01-16T00:33:47;6.20;;;3.60;;
78718;SDS011;68046;53.334;9.538;2024-01-16T00:36:13;8.07;;;5.00;;
78718;SDS011;68046;53.334;9.538;2024-01-16T00:38:39;9.38;;;4.70;;
78718;SDS011;68046;53.334;9.538;2024-01-16T00:41:04;7.45;;;4.68;;
78718;SDS011;68046;53.334;9.538;2024-01-16T00:43:30;8.02;;;5.03;;
78718;SDS011;68046;53.334;9.538;2024-01-16T00:45:56;8.75;;;5.10;;
78718;SDS011;68046;53.334;9.538;2024-01-16T00:48:22;10.07;;;4.63;;
78718;SDS011;68046;53.334;9.538;2024-01-16T00:50:47;7.43;;;4.50;;
78718;SDS011;68046;53.334;9.538;2024-01-16T00:53:13;6.03;;;3.95;;
78718;SDS011;68046;53.334;9.538;2024-01-16T00:55:38;7.57;;;4.43;;
78718;SDS011;68046;53.334;9.538;2024-01-16T00:58:04;8.38;;;5.07;;
78718;SDS011;68046;53.334;9.538;2024-01-16T01:00:30;8.55;;;4.63;;
78718;SDS011;68046;53.334;9.538;2024-01-16T01:02:57;6.82;;;4.05;;
78718;SDS011;68046;53.334;9.538;2024-01-16T01:05:22;7.57;;;4.05;;
78718;SDS011;68046;53.334;9.538;2024-01-16T01:07:48;9.05;;;4.75;;
78718;SDS011;68046;53.334;9.538;2024-01-16T01:10:13;9.93;;;4.60;;
78718;SDS011;68046;53.334;9.538;2024-01-16T01:12:39;8.32;;;4.35;;
78718;SDS011;68046;53.334;9.538;2024-01-16T01:15:05;6.90;;;4.50;;
78718;SDS011;68046;53.334;9.538;2024-01-16T01:17:31;7.63;;;4.60;;
78718;SDS011;68046;53.334;9.538;2024-01-16T01:19:57;6.93;;;4.30;;
78718;SDS011;68046;53.334;9.538;2024-01-16T01:22:23;9.32;;;4.43;;
78718;SDS011;68046;53.334;9.538;2024-01-16T01:24:48;6.43;;;3.90;;
78718;SDS011;68046;53.334;9.538;2024-01-16T01:27:14;7.18;;;4.18;;
78718;SDS011;68046;53.334;9.538;2024-01-16T01:29:39;7.10;;;4.70;;
78718;SDS011;68046;53.334;9.538;2024-01-16T01:32:05;6.03;;;3.53;;
78718;SDS011;68046;53.334;9.538;2024-01-16T01:34:30;7.50;;;4.25;;
78718;SDS011;68046;53.334;9.538;2024-01-16T01:36:57;7.80;;;4.00;;
78718;SDS011;68046;53.334;9.538;2024-01-16T01:39:23;6.70;;;3.92;;
78718;SDS011;68046;53.334;9.538;2024-01-16T01:41:48;7.88;;;4.25;;
78718;SDS011;68046;53.334;9.538;2024-01-16T01:44:14;7.03;;;3.67;;
78718;SDS011;68046;53.334;9.538;2024-01-16T01:46:39;5.63;;;3.70;;
78718;SDS011;68046;53.334;9.538;2024-01-16T01:49:05;6.22;;;3.38;;
78718;SDS011;68046;53.334;9.538;2024-01-16T01:51:30;6.28;;;3.80;;
78718;SDS011;68046;53.334;9.538;2024-01-16T01:53:57;7.28;;;3.70;;
78718;SDS011;68046;53.334;9.538;2024-01-16T01:56:23;7.03;;;4.30;;
78718;SDS011;68046;53.334;9.538;2024-01-16T01:58:49;6.45;;;3.67;;
78718;SDS011;68046;53.334;9.538;2024-01-16T02:01:18;8.95;;;3.97;;
78718;SDS011;68046;53.334;9.538;2024-01-16T02:03:46;8.10;;;3.47;;
78718;SDS011;68046;53.334;9.538;2024-01-16T02:06:14;8.00;;;3.28;;
78718;SDS011;68046;53.334;9.538;2024-01-16T02:08:40;6.97;;;3.83;;
78718;SDS011;68046;53.334;9.538;2024-01-16T02:11:06;5.75;;;3.05;;
78718;SDS011;68046;53.334;9.538;2024-01-16T02:13:32;7.10;;;3.40;;
78718;SDS011;68046;53.334;9.538;2024-01-16T02:15:58;5.65;;;3.60;;
78718;SDS011;68046;53.334;9.538;2024-01-16T02:18:23;7.53;;;3.88;;
78718;SDS011;68046;53.334;9.538;2024-01-16T02:20:49;4.90;;;3.10;;
78718;SDS011;68046;53.334;9.538;2024-01-16T02:23:14;6.47;;;4.13;;
78718;SDS011;68046;53.334;9.538;2024-01-16T02:25:44;5.70;;;3.13;;
78718;SDS011;68046;53.334;9.538;2024-01-16T02:28:10;6.45;;;3.28;;
78718;SDS011;68046;53.334;9.538;2024-01-16T02:30:36;6.38;;;3.60;;
78718;SDS011;68046;53.334;9.538;2024-01-16T02:33:01;10.43;;;4.20;;
78718;SDS011;68046;53.334;9.538;2024-01-16T02:35:27;7.80;;;4.20;;
78718;SDS011;68046;53.334;9.538;2024-01-16T02:37:52;11.10;;;3.47;;
78718;SDS011;68046;53.334;9.538;2024-01-16T02:40:18;5.80;;;3.55;;
78718;SDS011;68046;53.334;9.538;2024-01-16T02:42:44;6.78;;;3.42;;
78718;SDS011;68046;53.334;9.538;2024-01-16T02:45:10;5.93;;;3.38;;
78718;SDS011;68046;53.334;9.538;2024-01-16T02:47:35;7.55;;;4.22;;
78718;SDS011;68046;53.334;9.538;2024-01-16T02:50:01;7.07;;;4.22;;
78718;SDS011;68046;53.334;9.538;2024-01-16T02:52:27;7.03;;;3.95;;
78718;SDS011;68046;53.334;9.538;2024-01-16T02:54:53;6.72;;;3.67;;
78718;SDS011;68046;53.334;9.538;2024-01-16T02:57:18;5.47;;;3.20;;
78718;SDS011;68046;53.334;9.538;2024-01-16T02:59:45;8.15;;;3.75;;
78718;SDS011;68046;53.334;9.538;2024-01-16T03:02:11;6.00;;;3.40;;
78718;SDS011;68046;53.334;9.538;2024-01-16T03:04:37;7.35;;;3.63;;
78718;SDS011;68046;53.334;9.538;2024-01-16T03:07:03;8.75;;;3.97;;
78718;SDS011;68046;53.334;9.538;2024-01-16T03:09:28;6.22;;;3.72;;
78718;SDS011;68046;53.334;9.538;2024-01-16T03:11:54;6.72;;;3.70;;
78718;SDS011;68046;53.334;9.538;2024-01-16T03:14:19;5.07;;;3.40;;
78718;SDS011;68046;53.334;9.538;2024-01-16T03:16:46;5.00;;;2.75;;
78718;SDS011;68046;53.334;9.538;2024-01-16T03:19:12;6.63;;;2.85;;
78718;SDS011;68046;53.334;9.538;2024-01-16T03:21:37;5.13;;;2.22;;
78718;SDS011;68046;53.334;9.538;2024-01-16T03:24:03;6.03;;;2.45;;
78718;SDS011;68046;53.334;9.538;2024-01-16T03:26:29;3.10;;;1.90;;
78718;SDS011;68046;53.334;9.538;2024-01-16T03:28:54;3.47;;;2.38;;
78718;SDS011;68046;53.334;9.538;2024-01-16T03:31:20;2.67;;;1.83;;
78718;SDS011;68046;53.334;9.538;2024-01-16T03:33:47;7.35;;;2.03;;
78718;SDS011;68046;53.334;9.538;2024-01-16T03:36:12;3.22;;;1.50;;
78718;SDS011;68046;53.334;9.538;2024-01-16T03:38:38;3.45;;;0.98;;
78718;SDS011;68046;53.334;9.538;2024-01-16T03:41:03;3.22;;;1.65;;
78718;SDS011;68046;53.334;9.538;2024-01-16T03:43:29;2.38;;;0.82;;
78718;SDS011;68046;53.334;9.538;2024-01-16T03:45:56;1.48;;;1.13;;
78718;SDS011;68046;53.334;9.538;2024-01-16T03:48:22;1.10;;;0.73;;
78718;SDS011;68046;53.334;9.538;2024-01-16T03:50:48;0.90;;;0.73;;
78718;SDS011;68046;53.334;9.538;2024-01-16T03:53:14;0.68;;;0.50;;
78718;SDS011;68046;53.334;9.538;2024-01-16T03:55:39;0.93;;;0.55;;
78718;SDS011;68046;53.334;9.538;2024-01-16T03:58:05;1.50;;;0.73;;
78718;SDS011;68046;53.334;9.538;2024-01-16T04:00:30;1.63;;;0.98;;
78718;SDS011;68046;53.334;9.538;2024-01-16T04:02:56;0.70;;;0.40;;
78718;SDS011;68046;53.334;9.538;2024-01-16T04:05:21;0.43;;;0.28;;
78718;SDS011;68046;53.334;9.538;2024-01-16T04:07:48;0.88;;;0.77;;
78718;SDS011;68046;53.334;9.538;2024-01-16T04:10:14;0.88;;;0.40;;
78718;SDS011;68046;53.334;9.538;2024-01-16T04:12:39;0.47;;;0.30;;
78718;SDS011;68046;53.334;9.538;2024-01-16T04:15:05;0.60;;;0.35;;
78718;SDS011;68046;53.334;9.538;2024-01-16T04:17:31;0.03;;;0.03;;
78718;SDS011;68046;53.334;9.538;2024-01-16T04:19:57;2.22;;;0.40;;
78718;SDS011;68046;53.334;9.538;2024-01-16T04:22:22;0.17;;;0.08;;
78718;SDS011;68046;53.334;9.538;2024-01-16T04:24:49;0.35;;;0.20;;
78718;SDS011;68046;53.334;9.538;2024-01-16T04:27:15;0.47;;;0.35;;
78718;SDS011;68046;53.334;9.538;2024-01-16T04:29:40;0.98;;;0.45;;
78718;SDS011;68046;53.334;9.538;2024-01-16T04:32:06;0.63;;;0.50;;
78718;SDS011;68046;53.334;9.538;2024-01-16T04:34:31;0.25;;;0.22;;
78718;SDS011;68046;53.334;9.538;2024-01-16T04:36:57;3.38;;;0.95;;
78718;SDS011;68046;53.334;9.538;2024-01-16T04:39:22;1.58;;;0.95;;
78718;SDS011;68046;53.334;9.538;2024-01-16T04:41:49;0.20;;;0.20;;
78718;SDS011;68046;53.334;9.538;2024-01-16T04:44:15;4.40;;;0.85;;
78718;SDS011;68046;53.334;9.538;2024-01-16T04:46:40;0.77;;;0.52;;
78718;SDS011;68046;53.334;9.538;2024-01-16T04:49:06;1.92;;;0.98;;
78718;SDS011;68046;53.334;9.538;2024-01-16T04:51:31;1.17;;;0.63;;
78718;SDS011;68046;53.334;9.538;2024-01-16T04:53:57;5.80;;;1.35;;
78718;SDS011;68046;53.334;9.538;2024-01-16T04:56:22;1.35;;;0.90;;
78718;SDS011;68046;53.334;9.538;2024-01-16T04:58:49;1.80;;;1.23;;
78718;SDS011;68046;53.334;9.538;2024-01-16T05:01:15;1.95;;;1.02;;
78718;SDS011;68046;53.334;9.538;2024-01-16T05:03:40;1.77;;;1.27;;
78718;SDS011;68046;53.334;9.538;2024-01-16T05:06:11;4.70;;;1.75;;
78718;SDS011;68046;53.334;9.538;2024-01-16T05:08:37;4.22;;;1.20;;
78718;SDS011;68046;53.334;9.538;2024-01-16T05:11:03;4.53;;;1.85;;
78718;SDS011;68046;53.334;9.538;2024-01-16T05:13:28;5.75;;;1.60;;
78718;SDS011;68046;53.334;9.538;2024-01-16T05:15:55;2.15;;;1.73;;
78718;SDS011;68046;53.334;9.538;2024-01-16T05:18:21;5.68;;;1.65;;
78718;SDS011;68046;53.334;9.538;2024-01-16T05:20:47;5.25;;;1.77;;
78718;SDS011;68046;53.334;9.538;2024-01-16T05:23:13;2.28;;;1.63;;
78718;SDS011;68046;53.334;9.538;2024-01-16T05:25:38;6.15;;;2.08;;
78718;SDS011;68046;53.334;9.538;2024-01-16T05:28:04;2.47;;;1.70;;
78718;SDS011;68046;53.334;9.538;2024-01-16T05:30:30;8.63;;;3.00;;
78718;SDS011;68046;53.334;9.538;2024-01-16T05:32:56;3.35;;;1.42;;
78718;SDS011;68046;53.334;9.538;2024-01-16T05:35:22;6.70;;;1.75;;
78718;SDS011;68046;53.334;9.538;2024-01-16T05:37:47;4.43;;;1.83;;
78718;SDS011;68046;53.334;9.538;2024-01-16T05:40:13;4.72;;;2.03;;
78718;SDS011;68046;53.334;9.538;2024-01-16T05:42:38;2.70;;;1.27;;
78718;SDS011;68046;53.334;9.538;2024-01-16T05:45:04;2.50;;;1.55;;
78718;SDS011;68046;53.334;9.538;2024-01-16T05:47:30;2.45;;;1.70;;
78718;SDS011;68046;53.334;9.538;2024-01-16T05:49:57;8.52;;;2.92;;
78718;SDS011;68046;53.334;9.538;2024-01-16T05:52:23;4.10;;;1.90;;
78718;SDS011;68046;53.334;9.538;2024-01-16T05:54:48;15.63;;;2.00;;
78718;SDS011;68046;53.334;9.538;2024-01-16T05:57:14;2.22;;;1.10;;
78718;SDS011;68046;53.334;9.538;2024-01-16T05:59:39;3.00;;;1.85;;
78718;SDS011;68046;53.334;9.538;2024-01-16T06:02:04;7.60;;;2.08;;
78718;SDS011;68046;53.334;9.538;2024-01-16T06:04:30;5.40;;;1.48;;
78718;SDS011;68046;53.334;9.538;2024-01-16T06:06:57;5.65;;;2.17;;
78718;SDS011;68046;53.334;9.538;2024-01-16T06:09:22;3.70;;;1.75;;
78718;SDS011;68046;53.334;9.538;2024-01-16T06:11:48;2.85;;;1.92;;
78718;SDS011;68046;53.334;9.538;2024-01-16T06:14:13;7.72;;;2.08;;
78718;SDS011;68046;53.334;9.538;2024-01-16T06:16:39;6.55;;;2.53;;
78718;SDS011;68046;53.334;9.538;2024-01-16T06:19:04;8.48;;;3.00;;
78718;SDS011;68046;53.334;9.538;2024-01-16T06:21:30;4.05;;;2.10;;
78718;SDS011;68046;53.334;9.538;2024-01-16T06:23:57;6.35;;;3.50;;
78718;SDS011;68046;53.334;9.538;2024-01-16T06:26:22;6.18;;;2.17;;
78718;SDS011;68046;53.334;9.538;2024-01-16T06:28:48;5.10;;;2.50;;
78718;SDS011;68046;53.334;9.538;2024-01-16T06:31:13;5.25;;;2.45;;
78718;SDS011;68046;53.334;9.538;2024-01-16T06:33:39;7.03;;;2.30;;
78718;SDS011;68046;53.334;9.538;2024-01-16T06:36:05;2.70;;;2.10;;
78718;SDS011;68046;53.334;9.538;2024-01-16T06:38:31;4.15;;;1.88;;
78718;SDS011;68046;53.334;9.538;2024-01-16T06:40:58;7.15;;;1.85;;
78718;SDS011;68046;53.334;9.538;2024-01-16T06:43:23;5.40;;;2.13;;
78718;SDS011;68046;53.334;9.538;2024-01-16T06:45:49;4.75;;;2.80;;
78718;SDS011;68046;53.334;9.538;2024-01-16T06:48:15;4.28;;;2.22;;
78718;SDS011;68046;53.334;9.538;2024-01-16T06:50:40;4.85;;;2.05;;
78718;SDS011;68046;53.334;9.538;2024-01-16T06:53:06;11.30;;;2.92;;
78718;SDS011;68046;53.334;9.538;2024-01-16T06:55:32;4.65;;;2.53;;
78718;SDS011;68046;53.334;9.538;2024-01-16T06:57:58;7.57;;;1.73;;
78718;SDS011;68046;53.334;9.538;2024-01-16T07:00:24;7.68;;;2.85;;
78718;SDS011;68046;53.334;9.538;2024-01-16T07:02:49;7.32;;;2.65;;
78718;SDS011;68046;53.334;9.538;2024-01-16T07:05:15;9.77;;;3.03;;
78718;SDS011;68046;53.334;9.538;2024-01-16T07:07:40;4.15;;;2.38;;
78718;SDS011;68046;53.334;9.538;2024-01-16T07:10:06;10.00;;;2.92;;
78718;SDS011;68046;53.334;9.538;2024-01-16T07:12:32;5.45;;;2.53;;
78718;SDS011;68046;53.334;9.538;2024-01-16T07:14:59;9.02;;;3.63;;
78718;SDS011;68046;53.334;9.538;2024-01-16T07:17:25;5.95;;;3.65;;
78718;SDS011;68046;53.334;9.538;2024-01-16T07:19:50;10.35;;;2.85;;
78718;SDS011;68046;53.334;9.538;2024-01-16T07:22:16;6.30;;;3.08;;
78718;SDS011;68046;53.334;9.538;2024-01-16T07:24:41;10.68;;;2.75;;
78718;SDS011;68046;53.334;9.538;2024-01-16T07:27:07;5.55;;;2.95;;
78718;SDS011;68046;53.334;9.538;2024-01-16T07:29:32;5.53;;;3.53;;
78718;SDS011;68046;53.334;9.538;2024-01-16T07:31:59;8.73;;;3.47;;
78718;SDS011;68046;53.334;9.538;2024-01-16T07:34:25;5.47;;;2.28;;
78718;SDS011;68046;53.334;9.538;2024-01-16T07:36:50;8.18;;;3.75;;
78718;SDS011;68046;53.334;9.538;2024-01-16T07:39:16;7.00;;;3.85;;
78718;SDS011;68046;53.334;9.538;2024-01-16T07:41:41;12.75;;;3.35;;
78718;SDS011;68046;53.334;9.538;2024-01-16T07:44:07;13.82;;;3.65;;
78718;SDS011;68046;53.334;9.538;2024-01-16T07:46:33;8.57;;;2.85;;
78718;SDS011;68046;53.334;9.538;2024-01-16T07:49:00;7.10;;;3.83;;
78718;SDS011;68046;53.334;9.538;2024-01-16T07:51:25;6.80;;;3.15;;
78718;SDS011;68046;53.334;9.538;2024-01-16T07:54:05;8.23;;;4.32;;
78718;SDS011;68046;53.334;9.538;2024-01-16T07:56:31;9.90;;;3.95;;
78718;SDS011;68046;53.334;9.538;2024-01-16T07:58:57;5.20;;;3.42;;
78718;SDS011;68046;53.334;9.538;2024-01-16T08:01:23;7.47;;;4.43;;
78718;SDS011;68046;53.334;9.538;2024-01-16T08:03:48;19.02;;;4.63;;
78718;SDS011;68046;53.334;9.538;2024-01-16T08:06:15;9.23;;;4.18;;
78718;SDS011;68046;53.334;9.538;2024-01-16T08:08:41;9.13;;;3.72;;
78718;SDS011;68046;53.334;9.538;2024-01-16T08:11:06;18.63;;;4.75;;
78718;SDS011;68046;53.334;9.538;2024-01-16T08:13:32;8.18;;;3.80;;
78718;SDS011;68046;53.334;9.538;2024-01-16T08:15:57;4.28;;;2.83;;
78718;SDS011;68046;53.334;9.538;2024-01-16T08:18:23;4.95;;;2.53;;
78718;SDS011;68046;53.334;9.538;2024-01-16T08:20:48;7.20;;;2.88;;
78718;SDS011;68046;53.334;9.538;2024-01-16T08:23:15;6.93;;;2.83;;
78718;SDS011;68046;53.334;9.538;2024-01-16T08:25:41;4.55;;;2.30;;
78718;SDS011;68046;53.334;9.538;2024-01-16T08:28:06;6.13;;;2.97;;
78718;SDS011;68046;53.334;9.538;2024-01-16T08:30:32;4.70;;;2.60;;
78718;SDS011;68046;53.334;9.538;2024-01-16T08:32:57;14.70;;;2.17;;
78718;SDS011;68046;53.334;9.538;2024-01-16T08:35:23;4.45;;;1.90;;
78718;SDS011;68046;53.334;9.538;2024-01-16T08:37:48;4.40;;;2.03;;
78718;SDS011;68046;53.334;9.538;2024-01-16T08:40:15;2.55;;;2.05;;
78718;SDS011;68046;53.334;9.538;2024-01-16T08:42:41;3.92;;;1.70;;
78718;SDS011;68046;53.334;9.538;2024-01-16T08:45:06;6.60;;;2.08;;
78718;SDS011;68046;53.334;9.538;2024-01-16T08:47:32;8.88;;;2.58;;
78718;SDS011;68046;53.334;9.538;2024-01-16T08:49:58;5.38;;;1.90;;
78718;SDS011;68046;53.334;9.538;2024-01-16T08:52:23;3.63;;;1.75;;
78718;SDS011;68046;53.334;9.538;2024-01-16T08:54:49;6.97;;;2.50;;
78718;SDS011;68046;53.334;9.538;2024-01-16T08:57:16;7.20;;;2.15;;
78718;SDS011;68046;53.334;9.538;2024-01-16T08:59:41;6.30;;;2.13;;
78718;SDS011;68046;53.334;9.538;2024-01-16T09:02:06;7.38;;;1.88;;
78718;SDS011;68046;53.334;9.538;2024-01-16T09:04:32;2.15;;;1.45;;
78718;SDS011;68046;53.334;9.538;2024-01-16T09:06:58;2.97;;;1.50;;
78718;SDS011;68046;53.334;9.538;2024-01-16T09:09:23;5.60;;;2.33;;
78718;SDS011;68046;53.334;9.538;2024-01-16T09:11:49;1.63;;;0.98;;
78718;SDS011;68046;53.334;9.538;2024-01-16T09:14:15;3.50;;;1.23;;
78718;SDS011;68046;53.334;9.538;2024-01-16T09:16:41;5.60;;;1.60;;
78718;SDS011;68046;53.334;9.538;2024-01-16T09:19:06;5.20;;;2.78;;
78718;SDS011;68046;53.334;9.538;2024-01-16T09:21:32;5.93;;;1.40;;
78718;SDS011;68046;53.334;9.538;2024-01-16T09:23:57;2.83;;;1.67;;
78718;SDS011;68046;53.334;9.538;2024-01-16T09:26:23;7.55;;;2.60;;
78718;SDS011;68046;53.334;9.538;2024-01-16T09:28:48;10.10;;;2.17;;
78718;SDS011;68046;53.334;9.538;2024-01-16T09:31:16;15.77;;;2.80;;
78718;SDS011;68046;53.334;9.538;2024-01-16T09:33:41;5.65;;;1.92;;
78718;SDS011;68046;53.334;9.538;2024-01-16T09:36:07;4.75;;;2.63;;
78718;SDS011;68046;53.334;9.538;2024-01-16T09:38:32;5.95;;;2.35;;
78718;SDS011;68046;53.334;9.538;2024-01-16T09:40:58;9.70;;;2.35;;
78718;SDS011;68046;53.334;9.538;2024-01-16T09:43:23;7.97;;;2.65;;
78718;SDS011;68046;53.334;9.538;2024-01-16T09:45:52;2.72;;;1.83;;
78718;SDS011;68046;53.334;9.538;2024-01-16T09:48:21;4.38;;;2.10;;
78718;SDS011;68046;53.334;9.538;2024-01-16T09:50:46;4.40;;;2.88;;
78718;SDS011;68046;53.334;9.538;2024-01-16T09:53:12;12.32;;;3.35;;
78718;SDS011;68046;53.334;9.538;2024-01-16T09:55:37;8.05;;;3.28;;
78718;SDS011;68046;53.334;9.538;2024-01-16T09:58:03;6.70;;;3.58;;
78718;SDS011;68046;53.334;9.538;2024-01-16T10:00:31;5.53;;;3.83;;
78718;SDS011;68046;53.334;9.538;2024-01-16T10:02:58;7.88;;;3.00;;
78718;SDS011;68046;53.334;9.538;2024-01-16T10:05:25;10.70;;;3.60;;
78718;SDS011;68046;53.334;9.538;2024-01-16T10:07:51;6.35;;;3.38;;
78718;SDS011;68046;53.334;9.538;2024-01-16T10:10:17;4.57;;;3.20;;
78718;SDS011;68046;53.334;9.538;2024-01-16T10:12:42;13.60;;;4.72;;
78718;SDS011;68046;53.334;9.538;2024-01-16T10:15:09;13.75;;;4.85;;
78718;SDS011;68046;53.334;9.538;2024-01-16T10:17:35;6.43;;;3.75;;
78718;SDS011;68046;53.334;9.538;2024-01-16T10:20:01;4.30;;;3.30;;
78718;SDS011;68046;53.334;9.538;2024-01-16T10:22:28;6.13;;;4.00;;
78718;SDS011;68046;53.334;9.538;2024-01-16T10:25:06;10.68;;;4.60;;
78718;SDS011;68046;53.334;9.538;2024-01-16T10:27:33;8.95;;;4.57;;
78718;SDS011;68046;53.334;9.538;2024-01-16T10:29:59;9.90;;;3.33;;
78718;SDS011;68046;53.334;9.538;2024-01-16T10:32:27;15.23;;;3.30;;
78718;SDS011;68046;53.334;9.538;2024-01-16T10:35:00;8.15;;;3.10;;
78718;SDS011;68046;53.334;9.538;2024-01-16T10:37:27;4.68;;;2.78;;
78718;SDS011;68046;53.334;9.538;2024-01-16T10:39:53;7.07;;;2.20;;
78718;SDS011;68046;53.334;9.538;2024-01-16T10:42:19;10.25;;;3.55;;
78718;SDS011;68046;53.334;9.538;2024-01-16T10:44:52;2.92;;;2.38;;
78718;SDS011;68046;53.334;9.538;2024-01-16T10:47:18;4.72;;;2.35;;
78718;SDS011;68046;53.334;9.538;2024-01-16T10:49:46;12.77;;;4.60;;
78718;SDS011;68046;53.334;9.538;2024-01-16T10:52:11;5.07;;;2.83;;
78718;SDS011;68046;53.334;9.538;2024-01-16T10:54:38;13.85;;;3.33;;
78718;SDS011;68046;53.334;9.538;2024-01-16T10:57:06;3.38;;;2.25;;
78718;SDS011;68046;53.334;9.538;2024-01-16T10:59:34;4.28;;;2.40;;
78718;SDS011;68046;53.334;9.538;2024-01-16T11:02:05;9.77;;;2.60;;
78718;SDS011;68046;53.334;9.538;2024-01-16T11:04:37;3.85;;;2.25;;
78718;SDS011;68046;53.334;9.538;2024-01-16T11:07:03;11.27;;;2.72;;
78718;SDS011;68046;53.334;9.538;2024-01-16T11:09:29;8.50;;;3.03;;
78718;SDS011;68046;53.334;9.538;2024-01-16T11:11:56;3.13;;;1.90;;
78718;SDS011;68046;53.334;9.538;2024-01-16T11:14:22;6.70;;;2.30;;
78718;SDS011;68046;53.334;9.538;2024-01-16T11:16:50;3.15;;;2.25;;
78718;SDS011;68046;53.334;9.538;2024-01-16T11:19:16;5.38;;;2.22;;
78718;SDS011;68046;53.334;9.538;2024-01-16T11:21:44;5.07;;;1.98;;
78718;SDS011;68046;53.334;9.538;2024-01-16T11:24:10;3.05;;;1.98;;
78718;SDS011;68046;53.334;9.538;2024-01-16T11:26:39;8.95;;;2.65;;
78718;SDS011;68046;53.334;9.538;2024-01-16T11:32:02;9.00;;;2.22;;
78718;SDS011;68046;53.334;9.538;2024-01-16T11:37:20;10.23;;;1.98;;
78718;SDS011;68046;53.334;9.538;2024-01-16T11:39:54;5.38;;;2.30;;
78718;SDS011;68046;53.334;9.538;2024-01-16T11:42:34;5.72;;;2.55;;
78718;SDS011;68046;53.334;9.538;2024-01-16T11:45:01;3.78;;;2.47;;
78718;SDS011;68046;53.334;9.538;2024-01-16T11:47:26;5.50;;;3.67;;
78718;SDS011;68046;53.334;9.538;2024-01-16T11:50:07;12.90;;;3.25;;
78718;SDS011;68046;53.334;9.538;2024-01-16T11:52:39;12.27;;;2.97;;
78718;SDS011;68046;53.334;9.538;2024-01-16T11:57:56;7.00;;;3.03;;
78718;SDS011;68046;53.334;9.538;2024-01-16T12:00:36;4.30;;;2.90;;
78718;SDS011;68046;53.334;9.538;2024-01-16T12:03:05;7.60;;;2.50;;
78718;SDS011;68046;53.334;9.538;2024-01-16T12:05:31;10.05;;;3.28;;
78718;SDS011;68046;53.334;9.538;2024-01-16T12:07:57;6.03;;;3.55;;
78718;SDS011;68046;53.334;9.538;2024-01-16T12:10:23;7.82;;;3.88;;
78718;SDS011;68046;53.334;9.538;2024-01-16T12:12:49;7.20;;;3.55;;
78718;SDS011;68046;53.334;9.538;2024-01-16T12:15:16;12.88;;;3.47;;
78718;SDS011;68046;53.334;9.538;2024-01-16T12:17:56;5.35;;;3.28;;
78718;SDS011;68046;53.334;9.538;2024-01-16T12:20:23;13.73;;;3.15;;
78718;SDS011;68046;53.334;9.538;2024-01-16T12:22:56;8.10;;;3.40;;
78718;SDS011;68046;53.334;9.538;2024-01-16T12:25:23;4.93;;;3.05;;
78718;SDS011;68046;53.334;9.538;2024-01-16T12:27:56;6.10;;;3.30;;
78718;SDS011;68046;53.334;9.538;2024-01-16T12:30:23;10.20;;;2.30;;
78718;SDS011;68046;53.334;9.538;2024-01-16T12:32:49;16.00;;;3.55;;
78718;SDS011;68046;53.334;9.538;2024-01-16T12:35:20;3.17;;;2.60;;
78718;SDS011;68046;53.334;9.538;2024-01-16T12:37:56;7.13;;;2.78;;
78718;SDS011;68046;53.334;9.538;2024-01-16T12:40:23;7.85;;;2.97;;
78718;SDS011;68046;53.334;9.538;2024-01-16T12:42:48;5.00;;;2.88;;
78718;SDS011;68046;53.334;9.538;2024-01-16T12:45:14;3.55;;;2.13;;
78718;SDS011;68046;53.334;9.538;2024-01-16T12:47:40;4.18;;;2.35;;
78718;SDS011;68046;53.334;9.538;2024-01-16T12:50:06;5.20;;;2.22;;
78718;SDS011;68046;53.334;9.538;2024-01-16T12:52:33;5.80;;;2.67;;
78718;SDS011;68046;53.334;9.538;2024-01-16T12:54:59;5.57;;;2.33;;
78718;SDS011;68046;53.334;9.538;2024-01-16T12:57:25;8.63;;;2.22;;
78718;SDS011;68046;53.334;9.538;2024-01-16T12:59:50;5.90;;;2.75;;
78718;SDS011;68046;53.334;9.538;2024-01-16T13:02:19;6.47;;;2.92;;
78718;SDS011;68046;53.334;9.538;2024-01-16T13:04:55;4.63;;;2.92;;
78718;SDS011;68046;53.334;9.538;2024-01-16T13:07:22;6.72;;;3.75;;
78718;SDS011;68046;53.334;9.538;2024-01-16T13:09:48;7.30;;;4.03;;
78718;SDS011;68046;53.334;9.538;2024-01-16T13:12:19;6.65;;;3.20;;
78718;SDS011;68046;53.334;9.538;2024-01-16T13:14:45;6.55;;;2.78;;
78718;SDS011;68046;53.334;9.538;2024-01-16T13:17:10;4.50;;;2.35;;
78718;SDS011;68046;53.334;9.538;2024-01-16T13:19:35;6.75;;;3.05;;
78718;SDS011;68046;53.334;9.538;2024-01-16T13:22:01;6.53;;;3.63;;
78718;SDS011;68046;53.334;9.538;2024-01-16T13:24:27;7.97;;;3.83;;
78718;SDS011;68046;53.334;9.538;2024-01-16T13:26:53;7.03;;;2.97;;
78718;SDS011;68046;53.334;9.538;2024-01-16T13:29:19;5.90;;;3.03;;
78718;SDS011;68046;53.334;9.538;2024-01-16T13:31:44;6.25;;;3.45;;
78718;SDS011;68046;53.334;9.538;2024-01-16T13:34:10;7.35;;;3.40;;
78718;SDS011;68046;53.334;9.538;2024-01-16T13:36:36;4.68;;;2.67;;
78718;SDS011;68046;53.334;9.538;2024-01-16T13:39:01;9.70;;;3.22;;
78718;SDS011;68046;53.334;9.538;2024-01-16T13:41:27;4.88;;;2.83;;
78718;SDS011;68046;53.334;9.538;2024-01-16T13:43:53;8.57;;;4.05;;
78718;SDS011;68046;53.334;9.538;2024-01-16T13:46:19;14.02;;;4.65;;
78718;SDS011;68046;53.334;9.538;2024-01-16T13:48:44;6.45;;;3.45;;
78718;SDS011;68046;53.334;9.538;2024-01-16T13:51:10;7.45;;;3.33;;
78718;SDS011;68046;53.334;9.538;2024-01-16T13:53:35;7.45;;;4.40;;
78718;SDS011;68046;53.334;9.538;2024-01-16T13:56:01;8.00;;;4.78;;
78718;SDS011;68046;53.334;9.538;2024-01-16T13:58:27;6.80;;;3.85;;
78718;SDS011;68046;53.334;9.538;2024-01-16T14:00:53;12.40;;;5.85;;
78718;SDS011;68046;53.334;9.538;2024-01-16T14:03:19;8.30;;;4.47;;
78718;SDS011;68046;53.334;9.538;2024-01-16T14:05:45;7.93;;;4.18;;
78718;SDS011;68046;53.334;9.538;2024-01-16T14:08:11;7.50;;;3.65;;
78718;SDS011;68046;53.334;9.538;2024-01-16T14:10:36;9.77;;;5.63;;
78718;SDS011;68046;53.334;9.538;2024-01-16T14:13:02;11.55;;;5.05;;
78718;SDS011;68046;53.334;9.538;2024-01-16T14:15:28;11.23;;;5.60;;
78718;SDS011;68046;53.334;9.538;2024-01-16T14:17:55;12.32;;;4.75;;
78718;SDS011;68046;53.334;9.538;2024-01-16T14:20:21;7.00;;;3.72;;
78718;SDS011;68046;53.334;9.538;2024-01-16T14:22:47;16.15;;;4.40;;
78718;SDS011;68046;53.334;9.538;2024-01-16T14:25:13;6.00;;;3.72;;
78718;SDS011;68046;53.334;9.538;2024-01-16T14:27:39;8.38;;;4.22;;
78718;SDS011;68046;53.334;9.538;2024-01-16T14:30:06;7.07;;;4.05;;
78718;SDS011;68046;53.334;9.538;2024-01-16T14:32:32;10.18;;;4.13;;
78718;SDS011;68046;53.334;9.538;2024-01-16T14:34:59;7.82;;;4.15;;
78718;SDS011;68046;53.334;9.538;2024-01-16T14:37:24;10.90;;;4.78;;
78718;SDS011;68046;53.334;9.538;2024-01-16T14:39:50;11.98;;;4.60;;
78718;SDS011;68046;53.334;9.538;2024-01-16T14:42:15;11.60;;;5.50;;
78718;SDS011;68046;53.334;9.538;2024-01-16T14:44:40;10.90;;;4.35;;
78718;SDS011;68046;53.334;9.538;2024-01-16T14:47:06;12.00;;;5.50;;
78718;SDS011;68046;53.334;9.538;2024-01-16T14:49:31;9.32;;;4.45;;